This is the latest recevied weather packets stored in our database for station/object KC1IUC-15. If no packets are shown the sender has not sent any weather packets the latest 10 day(s).
| Time | Temp. | Humidity | Pressure | Rain* | Wind** | Luminosity | Snow |
|---|---|---|---|---|---|---|---|
| 1777488903 | 17.78° C | 48% | 1012.3 hPa | 0 mm | - | 296 W/m² | - |
| 1777488603 | 18.33° C | 47% | 1012.3 hPa | 0 mm | - | 294 W/m² | - |
| 1777488303 | 18.33° C | 49% | 1012 hPa | 0 mm | - | 275 W/m² | - |
| 1777488003 | 17.78° C | 50% | 1012.3 hPa | 0 mm | - | 334 W/m² | - |
| 1777487703 | 17.78° C | 48% | 1012.7 hPa | 0 mm | - | 332 W/m² | - |
| 1777487403 | 17.78° C | 49% | 1012.7 hPa | 0 mm | - | 317 W/m² | - |
| 1777487103 | 18.33° C | 47% | 1012.7 hPa | 0 mm | - | 279 W/m² | - |
| 1777486803 | 18.33° C | 47% | 1012.7 hPa | 0 mm | - | 302 W/m² | - |
| 1777486503 | 18.89° C | 46% | 1012.3 hPa | 0 mm | - | 342 W/m² | - |
| 1777486203 | 19.44° C | 46% | 1012.7 hPa | 0 mm | - | 357 W/m² | - |
| 1777485903 | 18.89° C | 47% | 1012.7 hPa | 0 mm | - | 450 W/m² | - |
| 1777485603 | 18.33° C | 47% | 1012.7 hPa | 0 mm | - | 497 W/m² | - |
| 1777485303 | 18.89° C | 47% | 1013 hPa | 0 mm | - | 392 W/m² | - |
| 1777485003 | 18.89° C | 46% | 1013 hPa | 0 mm | - | 452 W/m² | - |
| 1777484703 | 18.33° C | 46% | 1013.3 hPa | 0 mm | - | 454 W/m² | - |
| 1777484403 | 18.89° C | 45% | 1013 hPa | 0 mm | - | 416 W/m² | - |
| 1777484103 | 18.89° C | 48% | 1013 hPa | 0 mm | - | 565 W/m² | - |
| 1777483803 | 19.44° C | 45% | 1013.3 hPa | 0 mm | - | 579 W/m² | - |
| 1777483503 | 19.44° C | 46% | 1013.3 hPa | 0 mm | - | 598 W/m² | - |
| 1777483203 | 19.44° C | 45% | 1013.3 hPa | 0 mm | - | 619 W/m² | - |
| 1777482903 | 20° C | 46% | 1013.3 hPa | 0 mm | - | 683 W/m² | - |
| 1777482603 | 18.89° C | 50% | 1013.3 hPa | 0 mm | - | 643 W/m² | - |
| 1777482303 | 18.89° C | 47% | 1013.3 hPa | 0 mm | - | 565 W/m² | - |
| 1777482003 | 19.44° C | 45% | 1013.3 hPa | 0 mm | - | 600 W/m² | - |
| 1777481703 | 19.44° C | 45% | 1013 hPa | 0 mm | - | 591 W/m² | - |
* Rain latest hour (hover to see other rain measurements)
** Current wind speed in m/s (hover to see current wind gust speed)